Terminal Aerodrome Forecast
Issued by NWS

Home | Current Version | Previous Version | Text Only | Print | Product List | Glossary On
Versions: 1 2 3 4 5 6 7 8 9 10 11 12 13 14 15 16 17 18 19 20 21 22 23
000
FTUS43 KGRB 191136
TAFRHI
TAF
KRHI 191136Z 1912/2012 26005KT 5SM BR OVC005
      TEMPO 1912/1913 2SM BR SCT005
     FM191300 29004KT 6SM BR FEW005
     FM191400 29005KT P6SM FEW120
     FM191800 27009KT P6SM SCT050 SCT200
     FM200100 25005KT P6SM SKC
     FM200900 VRB03KT 1 1/2SM BR FEW008=

USA.gov is the U.S. government's official web portal to all federal, state and local government web resources and services.